createdAt,value
2017-05-16T04:26:17.355Z,51.26
2017-05-16T04:27:17.903Z,51.83
2017-05-16T04:28:18.033Z,51.95
2017-05-16T04:29:13.845Z,51.98
2017-05-16T04:30:14.845Z,52.02
2017-05-16T04:31:12.544Z,52.05
2017-05-16T04:32:14.714Z,52.03
2017-05-16T04:33:14.979Z,52.04
2017-05-16T04:34:15.029Z,52.05
2017-05-16T04:35:13.563Z,52.04
2017-05-16T04:36:14.195Z,52.06
2017-05-16T04:37:13.472Z,52.04
2017-05-16T04:38:14.565Z,52.08
2017-05-16T04:39:14.813Z,52.02
2017-05-16T04:40:13.508Z,52.08
2017-05-16T04:41:13.864Z,52.06
2017-05-16T04:42:14.369Z,52.07
2017-05-16T04:43:19.183Z,52.07
2017-05-16T04:44:13.610Z,52.07
2017-05-16T04:45:17.300Z,52.07
2017-05-16T04:46:15.480Z,52.08
2017-05-16T04:47:13.880Z,52.07
2017-05-16T04:48:13.226Z,52.09
2017-05-16T04:49:15.139Z,52.06
2017-05-16T04:50:13.584Z,52.07
2017-05-16T04:51:16.243Z,52.07
2017-05-16T04:52:14.860Z,52.08
2017-05-16T04:53:13.608Z,52.07
2017-05-16T04:54:15.107Z,52.08
2017-05-16T04:55:13.504Z,52.09
2017-05-16T04:56:13.578Z,52.09
2017-05-16T04:57:13.938Z,52.07
2017-05-16T04:58:13.548Z,52.08
2017-05-16T04:59:16.074Z,52.10
2017-05-16T05:00:13.109Z,52.06
2017-05-16T05:01:16.435Z,52.08
2017-05-16T05:02:14.812Z,51.93
2017-05-16T05:03:16.045Z,51.26
2017-05-16T05:04:13.477Z,51.93
2017-05-16T05:05:13.667Z,52.03
2017-05-16T05:06:14.168Z,52.06
2017-05-16T05:07:14.242Z,52.12
2017-05-16T05:08:13.600Z,52.12
2017-05-16T05:09:14.153Z,52.12
2017-05-16T05:10:14.177Z,52.11
2017-05-16T05:11:13.562Z,52.10
2017-05-16T05:12:15.529Z,52.12
2017-05-16T05:13:15.997Z,52.12
2017-05-16T05:14:13.238Z,52.11
2017-05-16T05:15:13.555Z,52.10
2017-05-16T05:16:15.148Z,52.13
2017-05-16T05:17:13.627Z,52.13
2017-05-16T05:18:13.863Z,52.11
2017-05-16T05:19:14.189Z,52.13
2017-05-16T05:20:13.797Z,52.13
2017-05-16T05:21:16.614Z,52.14
2017-05-16T05:22:15.793Z,52.13
2017-05-16T05:23:15.005Z,52.14
2017-05-16T05:24:15.510Z,52.14
2017-05-16T05:25:13.627Z,52.14
2017-05-16T05:26:17.244Z,52.14
2017-05-16T05:27:13.861Z,52.14
2017-05-16T05:28:12.958Z,52.16
2017-05-16T05:29:13.622Z,52.18
2017-05-16T05:30:15.197Z,52.15
2017-05-16T05:31:14.076Z,52.17
2017-05-16T05:32:13.386Z,52.16
2017-05-16T05:33:16.082Z,52.17
2017-05-16T05:34:13.531Z,52.19
2017-05-16T05:35:14.185Z,52.21
2017-05-16T05:36:13.471Z,52.28
2017-05-16T05:37:14.230Z,52.25
2017-05-16T05:38:14.140Z,52.25
2017-05-16T05:39:14.629Z,52.28
2017-05-16T05:40:14.249Z,52.26
2017-05-16T05:41:13.592Z,52.26
2017-05-16T05:42:14.479Z,52.27
2017-05-16T05:43:14.221Z,52.28
2017-05-16T05:44:14.529Z,52.24
2017-05-16T05:45:15.240Z,52.27
2017-05-16T05:46:12.212Z,52.25
2017-05-16T05:47:15.239Z,52.28
2017-05-16T05:48:13.527Z,52.25
2017-05-16T05:49:13.939Z,52.26
2017-05-16T05:50:13.964Z,52.27
2017-05-16T05:51:13.250Z,52.27
2017-05-16T05:52:14.628Z,52.27
2017-05-16T05:53:14.569Z,52.27
2017-05-16T05:54:14.854Z,52.27
2017-05-16T05:55:13.187Z,52.26
2017-05-16T05:56:14.325Z,52.26
2017-05-16T05:57:16.556Z,52.23
2017-05-16T05:58:13.639Z,52.27
2017-05-16T05:59:14.494Z,52.27
2017-05-16T06:00:14.021Z,52.27
2017-05-16T06:01:13.182Z,52.26
2017-05-16T06:02:13.511Z,52.27
2017-05-16T06:03:13.729Z,52.27
2017-05-16T06:04:14.021Z,52.26
2017-05-16T06:05:11.473Z,52.29
2017-05-16T06:06:14.183Z,52.28
2017-05-16T06:07:13.647Z,52.28
2017-05-16T06:08:16.222Z,52.28
2017-05-16T06:09:15.053Z,52.28
2017-05-16T06:10:13.586Z,52.29
2017-05-16T06:11:14.035Z,52.29
2017-05-16T06:12:13.167Z,52.29
2017-05-16T06:13:10.691Z,52.32
2017-05-16T06:14:11.206Z,51.50
2017-05-16T06:15:14.578Z,51.31
2017-05-16T06:16:14.212Z,51.30
2017-05-16T06:17:14.474Z,51.18
2017-05-16T06:18:14.280Z,51.16
2017-05-16T06:19:10.914Z,51.14
2017-05-16T06:20:14.535Z,51.10
2017-05-16T06:21:11.413Z,51.11
2017-05-16T06:22:13.295Z,51.89
2017-05-16T06:23:14.700Z,52.07
2017-05-16T06:24:15.977Z,52.14
2017-05-16T06:25:16.113Z,52.18
2017-05-16T06:26:15.343Z,52.23
2017-05-16T06:27:15.258Z,52.28
2017-05-16T06:28:11.475Z,52.30
2017-05-16T06:29:14.188Z,51.49
2017-05-16T06:30:17.441Z,51.33
2017-05-16T06:31:14.594Z,51.23
2017-05-16T06:32:12.711Z,51.18
2017-05-16T06:33:13.443Z,51.95
2017-05-16T06:34:13.508Z,52.11
2017-05-16T06:35:15.261Z,52.19
2017-05-16T06:36:13.554Z,52.24
2017-05-16T06:37:14.279Z,52.29
2017-05-16T06:38:13.809Z,52.35
2017-05-16T06:39:14.293Z,52.38
2017-05-16T06:40:13.564Z,52.39
2017-05-16T06:41:12.174Z,52.47
2017-05-16T06:42:14.009Z,52.60
2017-05-16T06:43:13.225Z,52.79
2017-05-16T06:44:13.760Z,52.90
2017-05-16T06:45:16.005Z,52.96
2017-05-16T06:46:14.210Z,53.36
2017-05-16T06:47:14.355Z,53.59
2017-05-16T06:48:13.561Z,53.55
2017-05-16T06:49:13.756Z,54.03
2017-05-16T06:50:15.169Z,54.23
2017-05-16T06:51:13.558Z,54.16
2017-05-16T06:52:11.521Z,54.40
2017-05-16T06:53:13.534Z,54.64
2017-05-16T06:54:15.588Z,54.64
2017-05-16T06:55:15.627Z,54.89
2017-05-16T06:56:13.654Z,54.67
2017-05-16T06:57:15.210Z,55.39
2017-05-16T06:58:13.408Z,55.53
2017-05-16T06:59:13.727Z,55.77
2017-05-16T07:00:14.075Z,54.49
2017-05-16T07:01:13.395Z,54.73
2017-05-16T07:02:14.183Z,53.50
2017-05-16T07:03:13.406Z,52.96
2017-05-16T07:04:13.582Z,52.81
2017-05-16T07:05:14.210Z,52.90
2017-05-16T07:06:13.613Z,52.76
2017-05-16T07:07:14.121Z,52.82
2017-05-16T07:08:11.534Z,53.22
2017-05-16T07:09:13.669Z,53.81
2017-05-16T07:10:11.921Z,54.11
2017-05-16T07:11:13.993Z,54.25
2017-05-16T07:12:13.802Z,54.20
2017-05-16T07:13:18.659Z,54.32
2017-05-16T07:14:13.798Z,54.45
2017-05-16T07:15:15.253Z,54.61
2017-05-16T07:16:14.380Z,54.85
2017-05-16T07:17:14.244Z,54.83
2017-05-16T07:18:13.452Z,54.87
2017-05-16T07:19:14.750Z,55.00
2017-05-16T07:20:13.658Z,55.05
2017-05-16T07:21:14.195Z,55.15
2017-05-16T07:22:14.632Z,55.20
2017-05-16T07:23:14.143Z,55.31
2017-05-16T07:24:15.287Z,55.28
2017-05-16T07:25:14.615Z,55.12
2017-05-16T07:26:11.411Z,55.31
2017-05-16T07:27:14.729Z,55.31
2017-05-16T07:28:14.298Z,55.26
2017-05-16T07:29:17.678Z,55.24
2017-05-16T07:30:15.118Z,55.13
2017-05-16T07:31:13.379Z,55.23
2017-05-16T07:32:13.434Z,55.20
2017-05-16T07:33:13.795Z,55.18
2017-05-16T07:34:15.391Z,55.18
2017-05-16T07:35:13.760Z,55.20
2017-05-16T07:36:15.673Z,54.97
2017-05-16T07:37:14.696Z,54.25
2017-05-16T07:38:16.078Z,54.06
2017-05-16T07:39:14.703Z,53.96
2017-05-16T07:40:14.991Z,54.33
2017-05-16T07:41:13.347Z,54.82
2017-05-16T07:42:13.885Z,54.78
2017-05-16T07:43:13.417Z,54.73
2017-05-16T07:44:14.418Z,55.11
2017-05-16T07:45:13.934Z,54.93
2017-05-16T07:46:13.674Z,54.97
2017-05-16T07:47:17.836Z,54.77
2017-05-16T07:48:14.317Z,54.09
2017-05-16T07:49:10.950Z,53.84
2017-05-16T07:50:14.179Z,53.69
2017-05-16T07:51:12.174Z,53.47
2017-05-16T07:52:15.415Z,53.66
2017-05-16T07:53:14.783Z,53.76
2017-05-16T07:54:12.197Z,54.37
2017-05-16T07:55:13.987Z,54.56
2017-05-16T07:56:13.491Z,54.57
2017-05-16T07:57:13.565Z,54.64
2017-05-16T07:58:12.268Z,54.75
2017-05-16T07:59:15.636Z,54.79
2017-05-16T08:00:10.802Z,54.77
2017-05-16T08:01:13.926Z,54.65
2017-05-16T08:02:14.185Z,54.65
2017-05-16T08:03:10.486Z,54.64
2017-05-16T08:04:15.101Z,54.55
2017-05-16T08:05:13.388Z,54.52
2017-05-16T08:06:13.562Z,54.57
2017-05-16T08:07:13.647Z,54.47
2017-05-16T08:08:13.863Z,54.49
2017-05-16T08:09:13.265Z,54.44
2017-05-16T08:10:13.847Z,54.43
2017-05-16T08:11:14.529Z,54.40
2017-05-16T08:12:13.798Z,54.35
2017-05-16T08:13:14.814Z,54.33
2017-05-16T08:14:15.104Z,54.33
2017-05-16T08:15:13.174Z,54.29
2017-05-16T08:16:13.615Z,54.28
2017-05-16T08:17:15.631Z,54.24
2017-05-16T08:18:17.145Z,54.22
2017-05-16T08:19:13.846Z,54.22
2017-05-16T08:20:14.567Z,54.18
2017-05-16T08:21:16.761Z,54.16
2017-05-16T08:22:14.114Z,54.14
2017-05-16T08:23:15.474Z,54.12
2017-05-16T08:24:13.880Z,54.09
2017-05-16T08:25:13.921Z,54.04
2017-05-16T08:26:14.224Z,54.04
2017-05-16T08:27:15.307Z,54.01
2017-05-16T08:28:13.749Z,54.00
2017-05-16T08:29:16.576Z,53.98
2017-05-16T08:30:14.116Z,53.95
2017-05-16T08:31:13.610Z,53.92
2017-05-16T08:32:13.936Z,53.92
2017-05-16T08:33:11.214Z,53.90
2017-05-16T08:34:15.526Z,53.85
2017-05-16T08:35:14.429Z,53.85
2017-05-16T08:36:13.812Z,53.83
2017-05-16T08:37:14.059Z,53.81
2017-05-16T08:38:13.539Z,53.80
2017-05-16T08:39:14.742Z,53.78
2017-05-16T08:40:14.235Z,53.75
2017-05-16T08:41:13.590Z,53.71
2017-05-16T08:42:15.305Z,53.71
2017-05-16T08:43:17.312Z,53.69
2017-05-16T08:44:14.853Z,53.66
2017-05-16T08:45:13.285Z,53.64
2017-05-16T08:46:13.937Z,53.48
2017-05-16T08:47:13.722Z,52.76
2017-05-16T08:48:14.367Z,52.57
2017-05-16T08:49:13.785Z,52.56
2017-05-16T08:50:12.129Z,53.24
2017-05-16T08:51:14.014Z,53.36
2017-05-16T08:52:13.326Z,53.42
2017-05-16T08:53:14.936Z,53.43
2017-05-16T08:54:13.415Z,53.45
2017-05-16T08:55:13.871Z,53.44
2017-05-16T08:56:13.628Z,53.41
2017-05-16T08:57:14.205Z,53.41
2017-05-16T08:58:10.326Z,53.40
2017-05-16T08:59:15.059Z,53.38
2017-05-16T09:00:13.544Z,53.37
2017-05-16T09:01:13.947Z,53.34
2017-05-16T09:02:13.877Z,53.33
2017-05-16T09:03:13.885Z,53.32
2017-05-16T09:04:13.160Z,53.30
2017-05-16T09:05:13.442Z,53.29
2017-05-16T09:06:11.792Z,53.28
2017-05-16T09:07:15.394Z,53.25
2017-05-16T09:08:14.833Z,53.26
2017-05-16T09:09:14.625Z,53.24
2017-05-16T09:10:13.554Z,53.23
2017-05-16T09:11:14.511Z,53.23
2017-05-16T09:12:14.070Z,53.07
2017-05-16T09:13:13.582Z,52.33
2017-05-16T09:14:13.887Z,52.18
2017-05-16T09:15:14.286Z,52.38
2017-05-16T09:16:13.760Z,52.86
2017-05-16T09:17:14.882Z,52.96
2017-05-16T09:18:13.649Z,53.03
2017-05-16T09:19:15.284Z,53.05
2017-05-16T09:20:14.555Z,53.04
2017-05-16T09:21:15.429Z,53.04
2017-05-16T09:22:13.358Z,53.02
2017-05-16T09:23:14.822Z,53.03
2017-05-16T09:24:14.931Z,53.03
2017-05-16T09:25:13.511Z,53.03
2017-05-16T09:26:13.827Z,53.01
2017-05-16T09:27:14.192Z,53.05
2017-05-16T09:28:14.118Z,53.03
2017-05-16T09:29:14.204Z,53.03
2017-05-16T09:30:13.645Z,53.00
2017-05-16T09:31:13.891Z,53.00
2017-05-16T09:32:13.300Z,52.98
2017-05-16T09:33:13.695Z,52.97
2017-05-16T09:34:13.927Z,52.94
2017-05-16T09:35:10.897Z,52.94
2017-05-16T09:36:13.712Z,52.93
2017-05-16T09:37:18.273Z,52.91
2017-05-16T09:38:14.562Z,52.90
2017-05-16T09:39:14.111Z,52.89
2017-05-16T09:40:13.683Z,52.89
2017-05-16T09:41:16.006Z,52.87
2017-05-16T09:42:15.064Z,52.86
2017-05-16T09:43:13.512Z,52.85
2017-05-16T09:44:16.440Z,52.84
2017-05-16T09:45:13.511Z,52.80
2017-05-16T09:46:14.802Z,52.81
2017-05-16T09:47:14.258Z,52.78
2017-05-16T09:48:13.468Z,52.76
2017-05-16T09:49:13.712Z,52.77
2017-05-16T09:50:13.956Z,52.74
2017-05-16T09:51:13.640Z,52.74
2017-05-16T09:52:14.414Z,52.76
2017-05-16T09:53:13.957Z,52.76
2017-05-16T09:54:11.819Z,52.61
2017-05-16T09:55:13.717Z,52.73
2017-05-16T09:56:14.031Z,52.72
2017-05-16T09:57:14.218Z,52.72
2017-05-16T09:58:17.893Z,52.70
2017-05-16T09:59:15.134Z,52.72
2017-05-16T10:00:15.039Z,52.73
2017-05-16T10:01:14.230Z,52.73
2017-05-16T10:02:14.877Z,52.68
2017-05-16T10:03:14.243Z,52.67
2017-05-16T10:04:15.481Z,52.66
2017-05-16T10:05:17.536Z,52.61
2017-05-16T10:06:16.068Z,52.61
2017-05-16T10:07:14.108Z,52.60
2017-05-16T10:08:16.218Z,52.57
2017-05-16T10:09:10.898Z,52.56
2017-05-16T10:10:15.531Z,52.55
2017-05-16T10:11:15.669Z,52.52
2017-05-16T10:12:12.311Z,52.53
2017-05-16T10:13:15.299Z,51.73
2017-05-16T10:14:15.062Z,52.35
2017-05-16T10:15:10.523Z,52.44
2017-05-16T10:16:14.519Z,52.46
2017-05-16T10:17:15.267Z,52.46
2017-05-16T10:18:15.656Z,52.45
2017-05-16T10:19:17.163Z,52.46
2017-05-16T10:20:14.312Z,52.44
2017-05-16T10:21:17.010Z,52.45
2017-05-16T10:22:14.245Z,52.43
2017-05-16T10:23:14.757Z,52.44
2017-05-16T10:24:15.277Z,52.42
2017-05-16T10:25:14.869Z,52.40
2017-05-16T10:26:19.430Z,52.39
2017-05-16T10:27:16.192Z,52.38
2017-05-16T10:28:15.153Z,52.39
2017-05-16T10:29:15.639Z,52.35
2017-05-16T10:30:16.420Z,52.35
2017-05-16T10:31:24.393Z,52.35
2017-05-16T10:32:11.561Z,52.33
2017-05-16T10:33:14.571Z,52.30
2017-05-16T10:34:11.447Z,52.31
2017-05-16T10:36:14.633Z,52.31
2017-05-16T10:36:17.869Z,52.29
2017-05-16T10:37:15.535Z,52.28
2017-05-16T10:38:11.942Z,52.26
2017-05-16T10:39:15.860Z,51.46
2017-05-16T10:40:13.959Z,52.07
2017-05-16T10:41:14.232Z,52.13
2017-05-16T10:42:14.821Z,52.18
2017-05-16T10:43:15.606Z,52.18
2017-05-16T10:44:15.275Z,52.19
2017-05-16T10:45:14.709Z,52.21
2017-05-16T10:46:15.513Z,52.24
2017-05-16T10:47:15.549Z,52.25
2017-05-16T10:48:15.574Z,52.29
2017-05-16T10:49:14.821Z,52.30
2017-05-16T10:50:16.067Z,52.30
2017-05-16T10:51:15.336Z,52.28
2017-05-16T10:52:15.240Z,52.24
2017-05-16T10:53:14.525Z,52.21
2017-05-16T10:54:15.141Z,52.17
2017-05-16T10:55:14.144Z,52.20
2017-05-16T10:56:16.246Z,52.19
2017-05-16T10:57:15.937Z,52.20
2017-05-16T10:58:13.756Z,52.20
2017-05-16T10:59:12.574Z,52.20
2017-05-16T11:00:14.531Z,51.54
2017-05-16T11:01:15.851Z,51.23
2017-05-16T11:02:15.482Z,51.41
2017-05-16T11:03:16.184Z,51.84
2017-05-16T11:04:14.642Z,51.98
2017-05-16T11:05:16.849Z,52.01
2017-05-16T11:06:14.317Z,52.02
2017-05-16T11:07:14.631Z,52.04
2017-05-16T11:08:15.150Z,52.06
2017-05-16T11:09:13.128Z,52.12
2017-05-16T11:10:14.592Z,51.31
2017-05-16T11:11:15.218Z,51.28
2017-05-16T11:12:14.399Z,51.88
2017-05-16T11:13:16.610Z,52.04
2017-05-16T11:14:14.852Z,52.11
2017-05-16T11:15:16.134Z,52.08
2017-05-16T11:16:16.470Z,52.13
2017-05-16T11:17:16.578Z,52.11
2017-05-16T11:18:16.778Z,52.08
2017-05-16T11:19:15.589Z,52.08
2017-05-16T11:20:15.498Z,52.05
2017-05-16T11:21:14.439Z,52.09
2017-05-16T11:22:15.244Z,52.06
2017-05-16T11:23:15.574Z,52.09
2017-05-16T11:24:16.200Z,52.07
2017-05-16T11:25:15.282Z,52.06
